createdAt,value
2018-03-24T00:00:25.682Z,48.97
2018-03-24T00:02:55.255Z,46.33
2018-03-24T00:05:25.641Z,47.38
2018-03-24T00:07:55.403Z,46.42
2018-03-24T00:10:25.143Z,44.67
2018-03-24T00:12:54.704Z,44.90
2018-03-24T00:15:25.296Z,51.55
2018-03-24T00:17:55.206Z,49.38
2018-03-24T00:20:25.783Z,45.65
2018-03-24T00:22:55.340Z,47.05
2018-03-24T00:25:25.208Z,51.65
2018-03-24T00:27:54.795Z,51.60
2018-03-24T00:30:25.203Z,48.03
2018-03-24T00:32:55.742Z,47.67
2018-03-24T00:35:25.343Z,43.58
2018-03-24T00:38:04.947Z,48.28
2018-03-24T00:40:34.472Z,43.35
2018-03-24T00:43:03.989Z,46.17
2018-03-24T00:45:33.649Z,43.78
2018-03-24T00:48:03.504Z,45.10
2018-03-24T00:50:33.216Z,49.20
2018-03-24T00:53:03.573Z,45.60
2018-03-24T00:55:34.214Z,46.13
2018-03-24T00:59:06.291Z,48.47
2018-03-24T01:01:36.043Z,55.58
2018-03-24T01:04:06.743Z,46.55
2018-03-24T01:06:36.422Z,43.70
2018-03-24T01:09:07.227Z,41.95
2018-03-24T01:11:37.032Z,48.78
2018-03-24T01:14:06.341Z,44.83
2018-03-24T01:16:35.762Z,47.10
2018-03-24T01:19:06.187Z,45.63
2018-03-24T01:21:36.673Z,45.15
2018-03-24T01:24:06.189Z,43.50
2018-03-24T01:26:35.903Z,45.30
2018-03-24T01:29:05.655Z,43.20
2018-03-24T01:32:55.314Z,48.20
2018-03-24T01:35:24.970Z,49.70
2018-03-24T01:37:54.524Z,52.85
2018-03-24T01:40:24.139Z,50.33
2018-03-24T01:42:53.754Z,58.50
2018-03-24T01:45:24.225Z,53.65
2018-03-24T01:50:29.788Z,49.83
2018-03-24T01:52:59.259Z,46.83
2018-03-24T01:55:29.575Z,55.10
2018-03-24T01:58:03.603Z,50.42
2018-03-24T02:00:33.964Z,49.50
2018-03-24T02:03:04.216Z,49.38
2018-03-24T02:05:33.932Z,47.25
2018-03-24T02:08:03.397Z,46.50
2018-03-24T02:10:32.932Z,52.00
2018-03-24T02:13:03.160Z,44.55
2018-03-24T02:15:32.321Z,54.88
2018-03-24T02:18:03.019Z,60.30
2018-03-24T02:20:33.303Z,52.28
2018-03-24T02:23:02.559Z,53.35
2018-03-24T02:25:32.097Z,50.75
2018-03-24T02:28:01.714Z,47.88
2018-03-24T02:30:31.039Z,49.10
2018-03-24T02:33:01.296Z,54.50
2018-03-24T02:35:30.633Z,55.60
2018-03-24T02:37:59.973Z,56.70
2018-03-24T02:40:30.617Z,57.65
2018-03-24T02:43:00.134Z,56.20
2018-03-24T02:45:29.480Z,56.37
2018-03-24T02:47:58.857Z,54.25
2018-03-24T02:50:29.380Z,53.92
2018-03-24T02:52:58.436Z,55.83
2018-03-24T02:55:28.452Z,53.72
2018-03-24T02:57:58.519Z,53.30
2018-03-24T03:00:27.707Z,54.92
2018-03-24T03:02:56.804Z,53.17
2018-03-24T03:05:26.513Z,46.05
2018-03-24T03:07:56.291Z,50.90
2018-03-24T03:10:26.345Z,49.50
2018-03-24T03:13:00.212Z,55.08
2018-03-24T03:15:30.947Z,55.25
2018-03-24T03:18:00.135Z,62.53
2018-03-24T03:20:29.893Z,60.55
2018-03-24T03:22:58.988Z,52.60
2018-03-24T03:25:28.339Z,59.83
2018-03-24T03:27:58.616Z,55.53
2018-03-24T03:30:28.126Z,54.92
2018-03-24T03:32:57.709Z,62.70
2018-03-24T03:35:26.924Z,64.90
2018-03-24T03:37:56.103Z,65.95
2018-03-24T03:40:25.604Z,58.60
2018-03-24T03:42:54.600Z,58.05
2018-03-24T03:45:23.734Z,52.22
2018-03-24T03:47:53.201Z,56.95
2018-03-24T03:50:22.320Z,54.17
2018-03-24T03:52:51.403Z,60.50
2018-03-24T03:55:20.407Z,64.65
2018-03-24T03:57:49.483Z,55.63
2018-03-24T04:00:18.832Z,59.00
2018-03-24T04:02:48.068Z,59.72
2018-03-24T04:05:17.551Z,51.47
2018-03-24T04:07:47.364Z,56.37
2018-03-24T04:10:17.223Z,59.53
2018-03-24T04:12:46.404Z,58.78
2018-03-24T04:15:16.038Z,54.92
2018-03-24T04:17:45.843Z,65.68
2018-03-24T04:20:14.935Z,66.10
2018-03-24T04:22:44.170Z,65.20
2018-03-24T04:25:13.459Z,57.83
2018-03-24T04:27:42.740Z,57.60
2018-03-24T04:30:11.700Z,57.03
2018-03-24T04:32:40.899Z,59.13
2018-03-24T04:35:10.020Z,62.08
2018-03-24T04:37:41.315Z,56.53
2018-03-24T04:40:11.189Z,56.15
2018-03-24T04:42:40.551Z,55.38
2018-03-24T04:45:10.379Z,59.92
2018-03-24T04:47:39.492Z,56.17
2018-03-24T04:50:08.648Z,58.22
2018-03-24T04:52:38.839Z,55.38
2018-03-24T04:55:07.866Z,56.37
2018-03-24T04:57:36.918Z,59.47
2018-03-24T05:00:06.134Z,58.60
2018-03-24T05:02:37.320Z,55.22
2018-03-24T05:05:06.859Z,61.50
2018-03-24T05:07:36.858Z,62.62
2018-03-24T05:10:06.389Z,55.88
2018-03-24T05:12:35.769Z,61.80
2018-03-24T05:15:04.972Z,61.25
2018-03-24T05:17:34.371Z,59.97
2018-03-24T05:20:03.461Z,54.88
2018-03-24T05:22:32.639Z,57.62
2018-03-24T05:25:01.906Z,52.92
2018-03-24T05:27:32.259Z,55.38
2018-03-24T05:30:01.465Z,49.83
2018-03-24T05:32:30.691Z,45.35
2018-03-24T05:34:59.989Z,48.85
2018-03-24T05:37:29.296Z,55.20
2018-03-24T05:39:58.475Z,49.67
2018-03-24T05:42:28.263Z,55.00
2018-03-24T05:45:12.767Z,52.10
2018-03-24T05:47:43.207Z,51.78
2018-03-24T05:50:12.515Z,48.05
2018-03-24T05:52:42.564Z,51.40
2018-03-24T05:55:12.203Z,49.75
2018-03-24T05:57:46.486Z,51.63
2018-03-24T06:00:16.050Z,49.72
2018-03-24T06:02:45.262Z,51.15
2018-03-24T06:05:20.568Z,49.53
2018-03-24T06:07:50.008Z,51.90
2018-03-24T06:10:20.256Z,46.55
2018-03-24T06:12:49.889Z,44.10
2018-03-24T06:15:19.294Z,47.95
2018-03-24T06:17:49.743Z,46.90
2018-03-24T06:20:19.408Z,48.90
2018-03-24T06:22:48.817Z,46.55
2018-03-24T06:25:18.419Z,47.67
2018-03-24T06:27:53.055Z,54.03
2018-03-24T06:30:22.691Z,48.58
2018-03-24T06:32:52.095Z,46.20
2018-03-24T06:35:21.708Z,48.78
2018-03-24T06:37:51.380Z,41.63
2018-03-24T06:40:20.756Z,44.10
2018-03-24T06:42:50.341Z,44.58
2018-03-24T06:45:20.546Z,47.00
2018-03-24T06:47:50.180Z,41.70
2018-03-24T06:50:20.482Z,41.17
2018-03-24T06:52:50.188Z,42.92
2018-03-24T06:55:19.683Z,45.95
2018-03-24T06:57:49.752Z,48.03
2018-03-24T07:00:19.333Z,46.08
2018-03-24T07:02:49.908Z,46.63
2018-03-24T07:05:19.310Z,39.88
2018-03-24T07:07:49.165Z,46.83
2018-03-24T07:10:18.711Z,48.65
2018-03-24T07:12:49.384Z,49.10
2018-03-24T07:15:18.957Z,46.92
2018-03-24T07:17:48.637Z,46.72
2018-03-24T07:20:19.237Z,43.58
2018-03-24T07:22:48.937Z,43.55
2018-03-24T07:25:18.596Z,41.63
2018-03-24T07:27:50.470Z,40.03
2018-03-24T07:30:20.287Z,42.40
2018-03-24T07:32:49.707Z,43.15
2018-03-24T07:35:23.948Z,43.40
2018-03-24T07:37:53.319Z,44.20
2018-03-24T07:40:23.083Z,43.03
2018-03-24T07:42:52.607Z,41.83
2018-03-24T07:45:23.095Z,39.88
2018-03-24T07:48:00.105Z,36.92
2018-03-24T07:50:30.559Z,40.28
2018-03-24T07:53:00.016Z,42.92
2018-03-24T07:55:30.014Z,45.95
